createdAt,value
2022-09-22T00:01:30.575Z,3.97
2022-09-22T00:04:00.536Z,2.13
2022-09-22T00:06:30.504Z,7.33
2022-09-22T00:09:01.657Z,2.50
2022-09-22T00:11:31.487Z,2.40
2022-09-22T00:14:02.544Z,3.00
2022-09-22T00:16:36.543Z,5.23
2022-09-22T00:19:07.152Z,4.50
2022-09-22T00:21:35.451Z,3.17
2022-09-22T00:24:08.153Z,3.47
2022-09-22T00:26:38.059Z,2.50
2022-09-22T00:29:08.126Z,1.73
2022-09-22T00:31:37.510Z,2.20
2022-09-22T00:34:06.251Z,1.90
2022-09-22T00:36:35.163Z,2.20
2022-09-22T00:39:04.876Z,2.27
2022-09-22T00:41:36.537Z,1.60
2022-09-22T00:44:34.423Z,2.43
2022-09-22T00:47:09.882Z,7.00
2022-09-22T00:49:44.342Z,2.60
2022-09-22T00:52:14.858Z,2.00
2022-09-22T00:54:44.563Z,2.03
2022-09-22T00:57:17.891Z,1.97
2022-09-22T00:59:48.865Z,2.47
2022-09-22T01:02:17.295Z,2.97
2022-09-22T01:04:46.907Z,2.90
2022-09-22T01:07:15.346Z,2.57
2022-09-22T01:09:44.963Z,4.40
2022-09-22T01:12:13.473Z,2.47
2022-09-22T01:14:54.805Z,2.30
2022-09-22T01:17:31.727Z,3.10
2022-09-22T01:20:40.706Z,2.23
2022-09-22T01:23:47.399Z,3.30
2022-09-22T01:26:44.735Z,2.03
2022-09-22T01:29:47.894Z,3.37
2022-09-22T01:32:23.083Z,1.60
2022-09-22T01:34:57.809Z,1.70
2022-09-22T01:37:31.314Z,1.53
2022-09-22T01:40:05.617Z,1.60
2022-09-22T01:42:38.518Z,2.00
2022-09-22T01:45:12.028Z,1.57
2022-09-22T01:47:44.712Z,1.70
2022-09-22T01:50:20.145Z,2.50
2022-09-22T01:52:49.308Z,1.53
2022-09-22T01:55:22.853Z,1.00
2022-09-22T01:57:57.142Z,1.83
2022-09-22T02:00:29.246Z,1.50
2022-09-22T02:03:05.317Z,1.40
2022-09-22T02:05:37.167Z,1.60
2022-09-22T02:08:12.654Z,1.53
2022-09-22T02:10:44.980Z,1.90
2022-09-22T02:13:13.489Z,1.80
2022-09-22T02:15:59.700Z,1.70
2022-09-22T02:18:34.889Z,1.70
2022-09-22T02:21:04.739Z,1.67
2022-09-22T02:23:33.731Z,1.70
2022-09-22T02:26:03.348Z,1.97
2022-09-22T02:28:33.584Z,4.60
2022-09-22T02:31:19.425Z,2.20
2022-09-22T02:33:51.280Z,1.53
2022-09-22T02:36:35.615Z,2.23
2022-09-22T02:39:08.159Z,1.90
2022-09-22T02:41:47.261Z,1.53
2022-09-22T02:44:20.675Z,3.63
2022-09-22T02:46:54.739Z,2.60
2022-09-22T02:49:26.267Z,1.70
2022-09-22T02:51:54.831Z,1.60
2022-09-22T02:54:23.917Z,1.80
2022-09-22T02:56:52.428Z,1.63
2022-09-22T02:59:21.343Z,1.80
2022-09-22T03:01:50.059Z,2.13
2022-09-22T03:04:18.288Z,1.60
2022-09-22T03:06:48.067Z,1.80
2022-09-22T03:09:17.729Z,2.17
2022-09-22T03:11:46.251Z,1.60
2022-09-22T03:14:14.385Z,2.00
2022-09-22T03:16:42.606Z,1.60
2022-09-22T03:19:11.216Z,1.50
2022-09-22T03:21:39.451Z,1.90
2022-09-22T03:24:09.187Z,2.07
2022-09-22T03:26:37.671Z,2.23
2022-09-22T03:29:06.290Z,1.80
2022-09-22T03:31:34.497Z,2.37
2022-09-22T03:34:02.834Z,1.83
2022-09-22T03:36:31.096Z,2.47
2022-09-22T03:38:59.556Z,1.67
2022-09-22T03:41:29.380Z,1.83
2022-09-22T03:43:58.433Z,1.90
2022-09-22T03:46:26.963Z,2.60
2022-09-22T03:48:55.326Z,3.63
2022-09-22T03:51:23.543Z,5.80
2022-09-22T03:53:51.977Z,2.50
2022-09-22T03:56:20.310Z,3.10
2022-09-22T03:58:49.915Z,2.20
2022-09-22T04:01:18.161Z,4.60
2022-09-22T04:03:46.663Z,4.23
2022-09-22T04:06:15.599Z,2.47
2022-09-22T04:08:43.771Z,2.30
2022-09-22T04:11:12.126Z,2.43
2022-09-22T04:13:45.935Z,2.87
2022-09-22T04:16:15.985Z,3.20
2022-09-22T04:18:44.403Z,2.57
2022-09-22T04:21:12.804Z,5.03
2022-09-22T04:23:40.906Z,4.17
2022-09-22T04:26:09.070Z,5.40
2022-09-22T04:28:37.347Z,6.00
2022-09-22T04:31:05.648Z,8.60
2022-09-22T04:33:35.388Z,7.27
2022-09-22T04:36:03.973Z,5.40
2022-09-22T04:38:32.267Z,6.30
2022-09-22T04:41:01.391Z,6.43
2022-09-22T04:43:29.527Z,2.83
2022-09-22T04:45:57.629Z,4.60
2022-09-22T04:48:25.964Z,5.70
2022-09-22T04:50:55.863Z,2.90
2022-09-22T04:53:24.637Z,4.30
2022-09-22T04:55:52.994Z,3.20
2022-09-22T04:58:21.232Z,3.70
2022-09-22T05:00:49.824Z,3.40
2022-09-22T05:03:22.283Z,7.00
2022-09-22T05:05:50.854Z,4.00
2022-09-22T05:08:20.819Z,6.53
2022-09-22T05:10:49.163Z,3.60
2022-09-22T05:13:17.654Z,3.80
2022-09-22T05:15:45.986Z,2.67
2022-09-22T05:18:14.811Z,3.03
2022-09-22T05:20:44.696Z,2.60
2022-09-22T05:23:12.871Z,2.20
2022-09-22T05:25:44.275Z,3.77
2022-09-22T05:28:12.753Z,3.03
2022-09-22T05:30:40.927Z,2.60
2022-09-22T05:33:09.256Z,2.80
2022-09-22T05:35:37.508Z,3.07
2022-09-22T05:38:06.330Z,2.97
2022-09-22T05:40:34.672Z,3.73
2022-09-22T05:43:04.812Z,3.47
2022-09-22T05:45:33.128Z,5.07
2022-09-22T05:48:01.404Z,6.40
2022-09-22T05:50:29.885Z,8.93
2022-09-22T05:53:05.955Z,5.20
2022-09-22T05:55:34.293Z,5.33
2022-09-22T05:58:04.729Z,4.97
2022-09-22T06:00:33.583Z,5.30
2022-09-22T06:03:02.065Z,5.37
2022-09-22T06:05:30.379Z,5.70
2022-09-22T06:08:02.965Z,5.33
2022-09-22T06:10:32.016Z,6.37
2022-09-22T06:13:00.404Z,4.33
2022-09-22T06:15:31.134Z,5.13
2022-09-22T06:17:59.351Z,4.80
2022-09-22T06:20:27.980Z,5.10
2022-09-22T06:22:56.734Z,4.90
2022-09-22T06:25:25.104Z,5.23
2022-09-22T06:28:01.861Z,6.97
2022-09-22T06:30:31.970Z,7.67
2022-09-22T06:33:00.595Z,9.20
2022-09-22T06:35:31.363Z,8.10
2022-09-22T06:37:59.902Z,6.40
2022-09-22T06:40:28.941Z,6.60
2022-09-22T06:43:02.047Z,6.40
2022-09-22T06:45:31.965Z,6.90
2022-09-22T06:48:00.747Z,6.87
2022-09-22T06:50:31.175Z,6.40
2022-09-22T06:53:00.863Z,8.00
2022-09-22T06:55:29.430Z,6.73
2022-09-22T06:57:58.959Z,6.77
2022-09-22T07:00:32.644Z,6.03
2022-09-22T07:03:07.320Z,7.10
2022-09-22T07:05:37.220Z,11.13
2022-09-22T07:08:06.127Z,5.17
2022-09-22T07:10:37.997Z,6.00
2022-09-22T07:13:06.898Z,8.67
2022-09-22T07:15:37.398Z,6.40
2022-09-22T07:18:07.307Z,7.50
2022-09-22T07:20:35.876Z,7.13
2022-09-22T07:23:04.127Z,6.90
2022-09-22T07:25:35.903Z,8.70
2022-09-22T07:28:05.471Z,12.73
2022-09-22T07:30:36.303Z,7.27
2022-09-22T07:33:06.076Z,12.63
2022-09-22T07:35:35.419Z,14.20
2022-09-22T07:38:03.792Z,17.40
2022-09-22T07:40:32.667Z,20.07
2022-09-22T07:43:01.060Z,25.13
2022-09-22T07:45:29.198Z,16.83
2022-09-22T07:48:14.673Z,18.27
2022-09-22T07:50:44.139Z,11.20
2022-09-22T07:53:12.383Z,12.27
2022-09-22T07:55:40.832Z,11.40
2022-09-22T07:58:12.901Z,12.80
2022-09-22T08:00:44.892Z,11.97
2022-09-22T08:03:13.238Z,11.60
2022-09-22T08:05:41.307Z,14.17
2022-09-22T08:08:11.082Z,17.30
2022-09-22T08:10:39.255Z,13.73
2022-09-22T08:13:09.065Z,12.83
2022-09-22T08:15:40.155Z,13.70
2022-09-22T08:18:08.512Z,9.53
2022-09-22T08:20:36.824Z,14.23
2022-09-22T08:23:05.633Z,11.57
2022-09-22T08:25:35.240Z,16.70
2022-09-22T08:28:04.502Z,8.53
2022-09-22T08:30:32.659Z,9.00
2022-09-22T08:33:01.920Z,8.90
2022-09-22T08:35:30.261Z,9.00
2022-09-22T08:37:58.567Z,8.07
2022-09-22T08:40:26.759Z,5.80
2022-09-22T08:42:57.236Z,6.07
2022-09-22T08:45:31.868Z,7.83
2022-09-22T08:48:25.343Z,6.80
2022-09-22T08:51:14.638Z,7.93
2022-09-22T08:53:49.038Z,8.43
2022-09-22T08:56:30.571Z,8.90
2022-09-22T08:59:08.091Z,8.07
2022-09-22T09:02:01.196Z,5.50
2022-09-22T09:04:58.830Z,4.93
2022-09-22T09:07:35.559Z,5.27
2022-09-22T09:10:15.652Z,6.27
2022-09-22T09:12:59.026Z,5.07
2022-09-22T09:15:43.824Z,6.10
2022-09-22T09:18:17.645Z,6.77
2022-09-22T09:20:48.082Z,3.90
2022-09-22T09:23:19.670Z,3.17
2022-09-22T09:25:52.398Z,3.63
2022-09-22T09:28:27.896Z,5.20
2022-09-22T09:31:07.990Z,5.60
2022-09-22T09:34:01.427Z,3.70
2022-09-22T09:36:33.886Z,4.13
2022-09-22T09:39:12.124Z,2.83
2022-09-22T09:41:41.839Z,4.00
2022-09-22T09:44:20.358Z,3.77
2022-09-22T09:46:59.324Z,2.97
2022-09-22T09:49:27.536Z,2.87
2022-09-22T09:52:00.110Z,4.27
2022-09-22T09:54:31.756Z,6.20
2022-09-22T09:57:09.398Z,8.57
2022-09-22T09:59:56.354Z,3.47
2022-09-22T10:02:28.594Z,6.10
2022-09-22T10:04:58.697Z,2.97
2022-09-22T10:10:24.917Z,2.93
2022-09-22T10:12:53.096Z,3.30
2022-09-22T10:15:25.913Z,5.13
2022-09-22T10:17:55.719Z,4.67
2022-09-22T10:20:26.494Z,2.57
2022-09-22T10:22:56.167Z,4.13
2022-09-22T10:25:25.990Z,5.43
2022-09-22T10:28:02.110Z,5.23
2022-09-22T10:30:37.373Z,3.27
2022-09-22T10:33:16.388Z,3.17
2022-09-22T10:35:46.556Z,3.30
2022-09-22T10:38:19.676Z,2.57
2022-09-22T10:40:51.846Z,4.87
2022-09-22T10:43:41.656Z,5.23
2022-09-22T10:46:42.683Z,3.00
2022-09-22T10:49:25.780Z,3.27
2022-09-22T10:52:05.143Z,2.47
2022-09-22T10:54:43.218Z,2.60
2022-09-22T10:57:25.010Z,3.50
2022-09-22T11:00:06.053Z,2.10
2022-09-22T11:02:57.491Z,6.17
2022-09-22T11:05:57.294Z,5.17
2022-09-22T11:08:43.262Z,3.83
2022-09-22T11:11:38.827Z,2.20
2022-09-22T11:14:20.171Z,2.63
2022-09-22T11:17:10.489Z,2.10
2022-09-22T11:20:01.717Z,4.20
2022-09-22T11:23:05.463Z,3.30
2022-09-22T11:25:46.518Z,3.00
2022-09-22T11:28:30.996Z,6.40
2022-09-22T11:30:59.336Z,2.33
2022-09-22T11:34:00.343Z,1.60
2022-09-22T11:36:51.804Z,4.63
2022-09-22T11:39:39.084Z,1.90
2022-09-22T11:42:19.014Z,2.33
2022-09-22T11:44:58.023Z,2.70
2022-09-22T11:47:55.599Z,1.90
2022-09-22T11:50:44.639Z,4.40
2022-09-22T11:53:41.464Z,1.70
2022-09-22T11:56:39.569Z,2.97
2022-09-22T11:59:20.563Z,2.50
2022-09-22T12:01:49.768Z,4.83
2022-09-22T12:04:35.364Z,1.60
2022-09-22T12:07:10.370Z,1.60
2022-09-22T12:09:45.011Z,3.27
2022-09-22T12:12:18.789Z,1.57
2022-09-22T12:14:55.403Z,3.70
2022-09-22T12:17:28.004Z,4.93
2022-09-22T12:20:05.023Z,4.67
2022-09-22T12:22:40.649Z,6.77
2022-09-22T12:25:21.163Z,1.50
2022-09-22T12:28:03.759Z,1.43
2022-09-22T12:30:33.455Z,2.77
2022-09-22T12:33:01.865Z,1.80
2022-09-22T12:35:32.263Z,1.53
2022-09-22T12:38:02.939Z,4.17
2022-09-22T12:40:35.674Z,3.33
2022-09-22T12:43:04.292Z,3.50
2022-09-22T12:45:36.991Z,1.97
2022-09-22T12:48:11.969Z,3.20
2022-09-22T12:50:42.121Z,2.27
2022-09-22T12:53:13.423Z,2.40
2022-09-22T12:55:41.808Z,1.33
2022-09-22T12:58:41.702Z,3.77
2022-09-22T13:01:32.458Z,2.77
2022-09-22T13:04:14.103Z,2.40
2022-09-22T13:06:59.601Z,1.27
2022-09-22T13:09:30.334Z,11.17
2022-09-22T13:12:28.245Z,1.50
2022-09-22T13:15:02.258Z,2.10
2022-09-22T13:17:45.827Z,2.30
2022-09-22T13:20:26.715Z,1.77
2022-09-22T13:22:56.632Z,3.97
2022-09-22T13:25:27.620Z,4.30
2022-09-22T13:28:11.435Z,1.03
2022-09-22T13:30:40.769Z,1.40
2022-09-22T13:33:23.121Z,8.80
2022-09-22T13:35:56.565Z,2.73
2022-09-22T13:38:24.979Z,1.67
2022-09-22T13:40:53.596Z,9.93
2022-09-22T13:43:30.267Z,1.67
2022-09-22T13:46:00.858Z,1.40
2022-09-22T13:48:34.707Z,6.20
2022-09-22T13:51:09.302Z,7.73
2022-09-22T13:53:38.734Z,2.90
2022-09-22T13:56:15.925Z,1.57
2022-09-22T13:58:47.698Z,2.00
2022-09-22T14:01:17.853Z,1.67
2022-09-22T14:03:48.381Z,3.40
2022-09-22T14:06:19.267Z,5.03
2022-09-22T14:08:49.661Z,1.50
2022-09-22T14:11:20.762Z,3.53
2022-09-22T14:13:59.865Z,4.00
2022-09-22T14:16:33.429Z,2.63
2022-09-22T14:19:06.454Z,1.70
2022-09-22T14:24:33.215Z,1.90
2022-09-22T14:27:04.538Z,2.70
2022-09-22T14:29:35.152Z,1.83
2022-09-22T14:32:12.918Z,4.13
2022-09-22T14:34:48.461Z,3.13
2022-09-22T14:37:23.914Z,1.27
2022-09-22T14:39:58.375Z,2.00
2022-09-22T14:42:29.042Z,1.37
2022-09-22T14:45:21.028Z,2.60
2022-09-22T14:48:19.383Z,1.57
2022-09-22T14:50:54.306Z,2.17
2022-09-22T14:53:25.164Z,2.30
2022-09-22T14:55:55.836Z,2.17
2022-09-22T14:58:26.403Z,2.07
2022-09-22T15:01:14.858Z,2.27
2022-09-22T15:03:45.391Z,1.40
2022-09-22T15:06:15.983Z,1.17
2022-09-22T15:08:49.103Z,1.67
2022-09-22T15:11:19.075Z,8.37
2022-09-22T15:13:50.688Z,1.53
2022-09-22T15:16:39.593Z,1.40
2022-09-22T15:19:11.983Z,2.40
2022-09-22T15:21:47.892Z,1.77
2022-09-22T15:24:21.307Z,3.13
2022-09-22T15:26:49.363Z,2.30
2022-09-22T15:29:17.457Z,2.27
2022-09-22T15:31:45.503Z,3.87
2022-09-22T15:34:16.612Z,4.30
2022-09-22T15:36:48.993Z,5.80
2022-09-22T15:39:21.188Z,3.80
2022-09-22T15:41:49.435Z,1.40
2022-09-22T15:44:17.884Z,6.70
2022-09-22T15:46:47.366Z,1.07
2022-09-22T15:49:18.092Z,6.20
2022-09-22T15:51:49.490Z,1.20
2022-09-22T15:54:18.944Z,2.07
2022-09-22T15:56:49.737Z,1.20
2022-09-22T15:59:19.841Z,4.97
2022-09-22T16:01:48.119Z,4.93
2022-09-22T16:04:17.298Z,4.10
2022-09-22T16:06:54.340Z,8.33
2022-09-22T16:09:22.548Z,4.80
2022-09-22T16:11:50.909Z,2.53
2022-09-22T16:14:19.746Z,3.20
2022-09-22T16:16:48.012Z,3.43
2022-09-22T16:19:16.766Z,1.23
2022-09-22T16:21:52.749Z,1.37
2022-09-22T16:24:22.534Z,2.73
2022-09-22T16:26:51.720Z,1.20
2022-09-22T16:29:20.023Z,1.63
2022-09-22T16:31:48.994Z,6.60
2022-09-22T16:34:17.213Z,2.97
2022-09-22T16:36:45.281Z,1.60
2022-09-22T16:39:14.927Z,2.57
2022-09-22T16:41:46.410Z,1.53
2022-09-22T16:44:15.755Z,0.90
2022-09-22T16:46:44.126Z,3.27
2022-09-22T16:49:13.895Z,0.83
2022-09-22T16:51:43.923Z,2.73
2022-09-22T16:54:15.335Z,2.83
2022-09-22T16:56:46.035Z,2.30
2022-09-22T16:59:17.011Z,1.30
2022-09-22T17:01:45.964Z,1.40
2022-09-22T17:04:16.854Z,4.77
2022-09-22T17:06:45.462Z,3.63
2022-09-22T17:09:17.116Z,1.83
2022-09-22T17:11:48.689Z,2.93
2022-09-22T17:14:21.177Z,3.83
2022-09-22T17:16:52.520Z,1.80
2022-09-22T17:19:22.340Z,1.00
2022-09-22T17:21:54.948Z,1.47
2022-09-22T17:24:25.648Z,1.77
2022-09-22T17:26:55.299Z,2.60
2022-09-22T17:29:25.596Z,2.10
2022-09-22T17:31:56.503Z,2.40
2022-09-22T17:34:25.495Z,7.37
2022-09-22T17:36:55.478Z,3.23
2022-09-22T17:39:25.893Z,5.40
2022-09-22T17:41:55.073Z,6.97
2022-09-22T17:44:24.159Z,12.03
2022-09-22T17:47:11.147Z,7.73
2022-09-22T17:49:57.169Z,7.93
2022-09-22T17:52:44.002Z,3.73
2022-09-22T17:55:20.550Z,2.00
2022-09-22T17:57:50.390Z,3.23
2022-09-22T18:00:21.036Z,3.77
2022-09-22T18:02:50.436Z,4.50
2022-09-22T18:05:20.961Z,3.30
2022-09-22T18:07:53.542Z,5.50
2022-09-22T18:10:26.390Z,7.37
2022-09-22T18:12:54.656Z,5.43
2022-09-22T18:15:22.911Z,5.67
2022-09-22T18:17:51.064Z,9.90
2022-09-22T18:20:22.652Z,11.10
2022-09-22T18:22:50.912Z,10.53
2022-09-22T18:25:23.188Z,10.17
2022-09-22T18:27:55.239Z,19.90
2022-09-22T18:30:23.561Z,19.10
2022-09-22T18:32:51.769Z,9.27
2022-09-22T18:35:20.165Z,5.40
2022-09-22T18:37:48.371Z,4.70
2022-09-22T18:40:17.141Z,5.43
2022-09-22T18:42:46.187Z,9.07
2022-09-22T18:45:15.836Z,7.47
2022-09-22T18:47:44.184Z,9.30
2022-09-22T18:50:13.436Z,9.00
2022-09-22T18:52:45.006Z,6.73
2022-09-22T18:55:19.135Z,7.47
2022-09-22T18:57:48.525Z,7.20
2022-09-22T19:00:20.879Z,8.27
2022-09-22T19:02:50.570Z,6.87
2022-09-22T19:05:19.240Z,11.47
2022-09-22T19:07:48.341Z,10.77
2022-09-22T19:10:18.859Z,23.23
2022-09-22T19:12:47.034Z,11.77
2022-09-22T19:15:19.082Z,10.20
2022-09-22T19:17:49.616Z,12.30
2022-09-22T19:20:21.053Z,9.33
2022-09-22T19:22:50.646Z,7.40
2022-09-22T19:25:20.112Z,7.57
2022-09-22T19:27:48.268Z,6.10
2022-09-22T19:30:22.478Z,7.13
2022-09-22T19:32:52.307Z,11.13
2022-09-22T19:35:21.007Z,10.80
2022-09-22T19:37:51.801Z,7.40
2022-09-22T19:40:20.802Z,6.73
2022-09-22T19:42:49.856Z,5.10
2022-09-22T19:45:19.669Z,10.80
2022-09-22T19:47:48.052Z,12.30
2022-09-22T19:50:16.443Z,19.43
2022-09-22T19:52:44.659Z,11.50
2022-09-22T19:55:12.914Z,7.93
2022-09-22T19:57:41.970Z,9.03
2022-09-22T20:00:12.114Z,8.97
2022-09-22T20:02:42.307Z,9.70
2022-09-22T20:05:20.597Z,7.20
2022-09-22T20:07:49.043Z,5.53
2022-09-22T20:10:19.011Z,7.13
2022-09-22T20:12:47.502Z,6.23
2022-09-22T20:15:15.972Z,4.93
2022-09-22T20:17:47.303Z,6.47
2022-09-22T20:20:17.174Z,8.60
2022-09-22T20:22:46.994Z,13.00
2022-09-22T20:25:23.695Z,11.47
2022-09-22T20:27:51.816Z,12.00
2022-09-22T20:30:20.157Z,7.53
2022-09-22T20:32:50.386Z,6.50
2022-09-22T20:35:21.811Z,10.70
2022-09-22T20:37:51.442Z,10.90
2022-09-22T20:40:22.028Z,8.83
2022-09-22T20:42:51.743Z,14.13
2022-09-22T20:45:21.139Z,9.10
2022-09-22T20:47:50.861Z,14.87
2022-09-22T20:50:19.682Z,9.40
2022-09-22T20:52:47.965Z,8.03
2022-09-22T20:55:16.647Z,8.50
2022-09-22T20:57:44.979Z,7.43
2022-09-22T21:00:15.301Z,7.63
2022-09-22T21:02:43.588Z,8.00
2022-09-22T21:05:13.238Z,6.40
2022-09-22T21:07:41.436Z,7.43
2022-09-22T21:10:28.960Z,10.33
2022-09-22T21:12:57.651Z,6.27
2022-09-22T21:15:25.879Z,6.77
2022-09-22T21:17:54.078Z,7.23
2022-09-22T21:20:23.658Z,6.17
2022-09-22T21:22:54.003Z,9.53
2022-09-22T21:25:22.193Z,10.10
2022-09-22T21:27:50.472Z,8.27
2022-09-22T21:30:18.801Z,11.10
2022-09-22T21:32:46.969Z,9.07
2022-09-22T21:35:16.911Z,8.20
2022-09-22T21:37:46.698Z,8.90
2022-09-22T21:40:15.397Z,4.43
2022-09-22T21:42:43.598Z,5.47
2022-09-22T21:45:12.954Z,4.93
2022-09-22T21:47:41.291Z,4.00
2022-09-22T21:50:10.510Z,4.90
2022-09-22T21:52:38.695Z,2.97
2022-09-22T21:55:09.881Z,6.00
2022-09-22T21:57:38.126Z,4.23
2022-09-22T22:00:08.916Z,3.10
2022-09-22T22:02:56.647Z,4.33
2022-09-22T22:05:24.786Z,3.17
2022-09-22T22:07:53.001Z,3.77
2022-09-22T22:10:24.202Z,3.43
2022-09-22T22:12:52.649Z,3.33
2022-09-22T22:15:20.959Z,5.53
2022-09-22T22:17:49.072Z,8.40
2022-09-22T22:20:17.296Z,32.27
2022-09-22T22:22:45.445Z,27.37
2022-09-22T22:25:17.345Z,22.67
2022-09-22T22:27:47.147Z,8.03
2022-09-22T22:30:15.688Z,4.67
2022-09-22T22:32:44.341Z,5.70
2022-09-22T22:35:13.235Z,5.20
2022-09-22T22:37:45.824Z,4.70
2022-09-22T22:40:14.120Z,2.70
2022-09-22T22:42:42.260Z,3.73
2022-09-22T22:45:12.261Z,3.40
2022-09-22T22:47:40.470Z,4.07
2022-09-22T22:50:10.003Z,4.93
2022-09-22T22:52:40.263Z,3.80
2022-09-22T22:55:09.739Z,3.50
2022-09-22T22:57:38.211Z,4.80
2022-09-22T23:00:07.340Z,3.27
2022-09-22T23:02:36.799Z,3.00
2022-09-22T23:05:05.273Z,2.80
2022-09-22T23:07:33.393Z,3.50
2022-09-22T23:10:07.165Z,3.47
2022-09-22T23:12:36.079Z,2.70
2022-09-22T23:15:05.509Z,2.30
2022-09-22T23:17:33.619Z,2.37
2022-09-22T23:20:03.662Z,2.30
2022-09-22T23:22:31.798Z,2.80
2022-09-22T23:25:00.564Z,2.27
2022-09-22T23:27:29.338Z,2.47
2022-09-22T23:29:58.118Z,2.93
2022-09-22T23:32:26.288Z,2.00
2022-09-22T23:34:54.704Z,2.50
2022-09-22T23:37:26.008Z,2.63
2022-09-22T23:39:54.990Z,4.37
2022-09-22T23:42:23.429Z,1.60
2022-09-22T23:44:51.836Z,2.50
2022-09-22T23:47:19.959Z,2.50
2022-09-22T23:49:48.087Z,1.63
2022-09-22T23:52:16.223Z,2.03
2022-09-22T23:54:46.458Z,5.40
2022-09-22T23:57:14.591Z,1.60
2022-09-22T23:59:42.758Z,2.10
